sensor_id;sensor_type;location;lat;lon;timestamp;temperature;humidity
37788;DHT22;23627;53.302;-6.362;2023-12-07T00:01:47;8.70;99.90
37788;DHT22;23627;53.302;-6.362;2023-12-07T00:04:12;8.70;99.90
37788;DHT22;23627;53.302;-6.362;2023-12-07T00:06:38;8.70;99.90
37788;DHT22;23627;53.302;-6.362;2023-12-07T00:09:04;8.70;99.90
37788;DHT22;23627;53.302;-6.362;2023-12-07T00:11:30;8.70;99.90
37788;DHT22;23627;53.302;-6.362;2023-12-07T00:13:56;8.70;99.90
37788;DHT22;23627;53.302;-6.362;2023-12-07T00:16:21;8.70;99.90
37788;DHT22;23627;53.302;-6.362;2023-12-07T00:18:47;8.70;99.90
37788;DHT22;23627;53.302;-6.362;2023-12-07T00:21:13;8.70;99.90
37788;DHT22;23627;53.302;-6.362;2023-12-07T00:23:38;8.70;99.90
37788;DHT22;23627;53.302;-6.362;2023-12-07T00:26:04;8.80;99.90
37788;DHT22;23627;53.302;-6.362;2023-12-07T00:28:30;8.70;99.90
37788;DHT22;23627;53.302;-6.362;2023-12-07T00:30:56;8.80;99.90
37788;DHT22;23627;53.302;-6.362;2023-12-07T00:33:22;8.80;99.90
37788;DHT22;23627;53.302;-6.362;2023-12-07T00:35:48;8.80;99.90
37788;DHT22;23627;53.302;-6.362;2023-12-07T00:38:14;8.80;99.90
37788;DHT22;23627;53.302;-6.362;2023-12-07T00:40:40;8.80;99.90
37788;DHT22;23627;53.302;-6.362;2023-12-07T00:43:08;8.80;99.90
37788;DHT22;23627;53.302;-6.362;2023-12-07T00:45:34;8.80;99.90
37788;DHT22;23627;53.302;-6.362;2023-12-07T00:48:00;8.80;99.90
37788;DHT22;23627;53.302;-6.362;2023-12-07T00:50:26;8.80;99.90
37788;DHT22;23627;53.302;-6.362;2023-12-07T00:52:51;8.80;99.90
37788;DHT22;23627;53.302;-6.362;2023-12-07T00:55:17;8.80;99.90
37788;DHT22;23627;53.302;-6.362;2023-12-07T00:57:43;8.80;99.90
37788;DHT22;23627;53.302;-6.362;2023-12-07T01:00:09;8.80;99.90
37788;DHT22;23627;53.302;-6.362;2023-12-07T01:02:36;8.80;99.90
37788;DHT22;23627;53.302;-6.362;2023-12-07T01:05:01;8.80;99.90
37788;DHT22;23627;53.302;-6.362;2023-12-07T01:07:27;8.80;99.90
37788;DHT22;23627;53.302;-6.362;2023-12-07T01:09:53;8.80;99.90
37788;DHT22;23627;53.302;-6.362;2023-12-07T01:12:19;8.80;99.90
37788;DHT22;23627;53.302;-6.362;2023-12-07T01:14:45;8.80;99.90
37788;DHT22;23627;53.302;-6.362;2023-12-07T01:17:11;8.80;99.90
37788;DHT22;23627;53.302;-6.362;2023-12-07T01:19:36;8.80;99.90
37788;DHT22;23627;53.302;-6.362;2023-12-07T01:22:02;8.80;99.90
37788;DHT22;23627;53.302;-6.362;2023-12-07T01:24:28;8.80;99.90
37788;DHT22;23627;53.302;-6.362;2023-12-07T01:26:54;8.80;99.90
37788;DHT22;23627;53.302;-6.362;2023-12-07T01:29:20;8.80;99.90
37788;DHT22;23627;53.302;-6.362;2023-12-07T01:31:46;8.80;99.90
37788;DHT22;23627;53.302;-6.362;2023-12-07T01:34:12;8.80;99.90
37788;DHT22;23627;53.302;-6.362;2023-12-07T01:36:37;8.80;99.90
37788;DHT22;23627;53.302;-6.362;2023-12-07T01:39:03;8.80;99.90
37788;DHT22;23627;53.302;-6.362;2023-12-07T01:41:30;8.80;99.90
37788;DHT22;23627;53.302;-6.362;2023-12-07T01:43:55;8.70;99.90
37788;DHT22;23627;53.302;-6.362;2023-12-07T01:46:21;8.70;99.90
37788;DHT22;23627;53.302;-6.362;2023-12-07T01:48:47;8.70;99.90
37788;DHT22;23627;53.302;-6.362;2023-12-07T01:51:15;8.70;99.90
37788;DHT22;23627;53.302;-6.362;2023-12-07T01:53:42;8.70;99.90
37788;DHT22;23627;53.302;-6.362;2023-12-07T01:56:08;8.80;99.90
37788;DHT22;23627;53.302;-6.362;2023-12-07T01:58:35;8.70;99.90
37788;DHT22;23627;53.302;-6.362;2023-12-07T02:01:02;8.70;99.90
37788;DHT22;23627;53.302;-6.362;2023-12-07T02:03:30;8.70;99.90
37788;DHT22;23627;53.302;-6.362;2023-12-07T02:05:57;8.70;99.90
37788;DHT22;23627;53.302;-6.362;2023-12-07T02:08:23;8.70;99.90
37788;DHT22;23627;53.302;-6.362;2023-12-07T02:10:49;8.70;99.90
37788;DHT22;23627;53.302;-6.362;2023-12-07T02:13:15;8.70;99.90
37788;DHT22;23627;53.302;-6.362;2023-12-07T02:15:41;8.70;99.90
37788;DHT22;23627;53.302;-6.362;2023-12-07T02:18:10;8.70;99.90
37788;DHT22;23627;53.302;-6.362;2023-12-07T02:23:31;8.70;99.90
37788;DHT22;23627;53.302;-6.362;2023-12-07T02:26:02;8.70;99.90
37788;DHT22;23627;53.302;-6.362;2023-12-07T02:28:28;8.70;99.90
37788;DHT22;23627;53.302;-6.362;2023-12-07T02:30:54;8.70;99.90
37788;DHT22;23627;53.302;-6.362;2023-12-07T02:33:19;8.70;99.90
37788;DHT22;23627;53.302;-6.362;2023-12-07T02:35:45;8.70;99.90
37788;DHT22;23627;53.302;-6.362;2023-12-07T02:38:11;8.80;99.90
37788;DHT22;23627;53.302;-6.362;2023-12-07T02:40:38;8.80;99.90
37788;DHT22;23627;53.302;-6.362;2023-12-07T02:43:06;8.80;99.90
37788;DHT22;23627;53.302;-6.362;2023-12-07T02:45:33;8.80;99.90
37788;DHT22;23627;53.302;-6.362;2023-12-07T02:47:59;8.80;99.90
37788;DHT22;23627;53.302;-6.362;2023-12-07T02:50:25;8.80;99.90
37788;DHT22;23627;53.302;-6.362;2023-12-07T02:52:51;8.80;99.90
37788;DHT22;23627;53.302;-6.362;2023-12-07T02:55:16;8.80;99.90
37788;DHT22;23627;53.302;-6.362;2023-12-07T02:57:42;8.80;99.90
37788;DHT22;23627;53.302;-6.362;2023-12-07T03:00:08;8.80;99.90
37788;DHT22;23627;53.302;-6.362;2023-12-07T03:02:38;8.80;99.90
37788;DHT22;23627;53.302;-6.362;2023-12-07T03:05:05;8.80;99.90
37788;DHT22;23627;53.302;-6.362;2023-12-07T03:07:31;8.90;99.90
37788;DHT22;23627;53.302;-6.362;2023-12-07T03:09:57;8.90;99.90
37788;DHT22;23627;53.302;-6.362;2023-12-07T03:12:22;8.90;99.90
37788;DHT22;23627;53.302;-6.362;2023-12-07T03:14:51;8.90;99.90
37788;DHT22;23627;53.302;-6.362;2023-12-07T03:17:17;8.90;99.90
37788;DHT22;23627;53.302;-6.362;2023-12-07T03:19:42;8.90;99.90
37788;DHT22;23627;53.302;-6.362;2023-12-07T03:22:08;8.90;99.90
37788;DHT22;23627;53.302;-6.362;2023-12-07T03:24:35;8.90;99.90
37788;DHT22;23627;53.302;-6.362;2023-12-07T03:27:01;8.90;99.90
37788;DHT22;23627;53.302;-6.362;2023-12-07T03:29:27;8.90;99.90
37788;DHT22;23627;53.302;-6.362;2023-12-07T03:31:53;8.90;99.90
37788;DHT22;23627;53.302;-6.362;2023-12-07T03:34:19;8.90;99.90
37788;DHT22;23627;53.302;-6.362;2023-12-07T03:36:48;8.90;99.90
37788;DHT22;23627;53.302;-6.362;2023-12-07T03:39:15;8.90;99.90
37788;DHT22;23627;53.302;-6.362;2023-12-07T03:41:41;9.00;99.90
37788;DHT22;23627;53.302;-6.362;2023-12-07T03:44:07;9.00;99.90
37788;DHT22;23627;53.302;-6.362;2023-12-07T03:46:33;9.00;99.90
37788;DHT22;23627;53.302;-6.362;2023-12-07T03:48:58;9.00;99.90
37788;DHT22;23627;53.302;-6.362;2023-12-07T03:51:26;9.00;99.90
37788;DHT22;23627;53.302;-6.362;2023-12-07T03:53:53;9.00;99.90
37788;DHT22;23627;53.302;-6.362;2023-12-07T03:56:24;9.10;99.90
37788;DHT22;23627;53.302;-6.362;2023-12-07T03:58:50;9.00;99.90
37788;DHT22;23627;53.302;-6.362;2023-12-07T04:01:16;9.00;99.90
37788;DHT22;23627;53.302;-6.362;2023-12-07T04:03:41;9.10;99.90
37788;DHT22;23627;53.302;-6.362;2023-12-07T04:06:07;9.10;99.90
37788;DHT22;23627;53.302;-6.362;2023-12-07T04:08:33;9.10;99.90
37788;DHT22;23627;53.302;-6.362;2023-12-07T04:10:59;9.10;99.90
37788;DHT22;23627;53.302;-6.362;2023-12-07T04:13:25;9.10;99.90
37788;DHT22;23627;53.302;-6.362;2023-12-07T04:15:50;9.10;99.90
37788;DHT22;23627;53.302;-6.362;2023-12-07T04:18:16;9.10;99.90
37788;DHT22;23627;53.302;-6.362;2023-12-07T04:20:42;9.10;99.90
37788;DHT22;23627;53.302;-6.362;2023-12-07T04:23:07;9.10;99.90
37788;DHT22;23627;53.302;-6.362;2023-12-07T04:25:33;9.10;99.90
37788;DHT22;23627;53.302;-6.362;2023-12-07T04:27:59;9.10;99.90
37788;DHT22;23627;53.302;-6.362;2023-12-07T04:30:25;9.10;99.90
37788;DHT22;23627;53.302;-6.362;2023-12-07T04:32:50;9.10;99.90
37788;DHT22;23627;53.302;-6.362;2023-12-07T04:35:16;9.10;99.90
37788;DHT22;23627;53.302;-6.362;2023-12-07T04:37:42;9.10;99.90
37788;DHT22;23627;53.302;-6.362;2023-12-07T04:40:08;9.10;99.90
37788;DHT22;23627;53.302;-6.362;2023-12-07T04:42:34;9.10;99.90
37788;DHT22;23627;53.302;-6.362;2023-12-07T04:45:00;9.10;99.90
37788;DHT22;23627;53.302;-6.362;2023-12-07T04:47:26;9.10;99.90
37788;DHT22;23627;53.302;-6.362;2023-12-07T04:49:51;9.10;99.90
37788;DHT22;23627;53.302;-6.362;2023-12-07T04:52:17;9.10;99.90
37788;DHT22;23627;53.302;-6.362;2023-12-07T04:54:44;9.10;99.90
37788;DHT22;23627;53.302;-6.362;2023-12-07T04:57:10;9.10;99.90
37788;DHT22;23627;53.302;-6.362;2023-12-07T04:59:36;9.10;99.90
37788;DHT22;23627;53.302;-6.362;2023-12-07T05:02:01;9.10;99.90
37788;DHT22;23627;53.302;-6.362;2023-12-07T05:04:27;9.00;99.90
37788;DHT22;23627;53.302;-6.362;2023-12-07T05:06:53;9.10;99.90
37788;DHT22;23627;53.302;-6.362;2023-12-07T05:09:19;9.00;99.90
37788;DHT22;23627;53.302;-6.362;2023-12-07T05:11:44;9.10;99.90
37788;DHT22;23627;53.302;-6.362;2023-12-07T05:14:11;9.00;99.90
37788;DHT22;23627;53.302;-6.362;2023-12-07T05:16:36;9.00;99.90
37788;DHT22;23627;53.302;-6.362;2023-12-07T05:19:02;9.10;99.90
37788;DHT22;23627;53.302;-6.362;2023-12-07T05:21:28;9.10;99.90
37788;DHT22;23627;53.302;-6.362;2023-12-07T05:23:54;9.00;99.90
37788;DHT22;23627;53.302;-6.362;2023-12-07T05:26:19;9.00;99.90
37788;DHT22;23627;53.302;-6.362;2023-12-07T05:28:46;9.00;99.90
37788;DHT22;23627;53.302;-6.362;2023-12-07T05:31:19;9.10;99.90
37788;DHT22;23627;53.302;-6.362;2023-12-07T05:33:45;9.00;99.90
37788;DHT22;23627;53.302;-6.362;2023-12-07T05:36:11;9.00;99.90
37788;DHT22;23627;53.302;-6.362;2023-12-07T05:38:37;9.10;99.90
37788;DHT22;23627;53.302;-6.362;2023-12-07T05:41:03;9.00;99.90
37788;DHT22;23627;53.302;-6.362;2023-12-07T05:43:29;9.00;99.90
37788;DHT22;23627;53.302;-6.362;2023-12-07T05:45:54;9.10;99.90
37788;DHT22;23627;53.302;-6.362;2023-12-07T05:48:20;9.10;99.90
37788;DHT22;23627;53.302;-6.362;2023-12-07T05:50:46;9.00;99.90
37788;DHT22;23627;53.302;-6.362;2023-12-07T05:53:11;9.10;99.90
37788;DHT22;23627;53.302;-6.362;2023-12-07T05:55:39;9.10;99.90
37788;DHT22;23627;53.302;-6.362;2023-12-07T05:58:04;9.00;99.90
37788;DHT22;23627;53.302;-6.362;2023-12-07T06:00:31;9.10;99.90
37788;DHT22;23627;53.302;-6.362;2023-12-07T06:02:57;9.10;99.90
37788;DHT22;23627;53.302;-6.362;2023-12-07T06:05:22;9.10;99.90
37788;DHT22;23627;53.302;-6.362;2023-12-07T06:07:48;9.00;99.90
37788;DHT22;23627;53.302;-6.362;2023-12-07T06:10:14;9.10;99.90
37788;DHT22;23627;53.302;-6.362;2023-12-07T06:12:40;9.00;99.90
37788;DHT22;23627;53.302;-6.362;2023-12-07T06:15:06;9.10;99.90
37788;DHT22;23627;53.302;-6.362;2023-12-07T06:17:35;9.10;99.90
37788;DHT22;23627;53.302;-6.362;2023-12-07T06:20:01;9.10;99.90
37788;DHT22;23627;53.302;-6.362;2023-12-07T06:22:28;9.10;99.90
37788;DHT22;23627;53.302;-6.362;2023-12-07T06:24:55;9.10;99.90
37788;DHT22;23627;53.302;-6.362;2023-12-07T06:27:20;9.20;99.90
37788;DHT22;23627;53.302;-6.362;2023-12-07T06:29:46;9.20;99.90
37788;DHT22;23627;53.302;-6.362;2023-12-07T06:32:12;9.20;99.90
37788;DHT22;23627;53.302;-6.362;2023-12-07T06:34:41;9.30;99.90
37788;DHT22;23627;53.302;-6.362;2023-12-07T06:37:07;9.30;99.90
37788;DHT22;23627;53.302;-6.362;2023-12-07T06:39:36;9.40;99.90
37788;DHT22;23627;53.302;-6.362;2023-12-07T06:42:01;9.40;99.90
37788;DHT22;23627;53.302;-6.362;2023-12-07T06:44:27;9.40;99.90
37788;DHT22;23627;53.302;-6.362;2023-12-07T06:46:53;9.50;99.90
37788;DHT22;23627;53.302;-6.362;2023-12-07T06:49:18;9.50;99.90
37788;DHT22;23627;53.302;-6.362;2023-12-07T06:51:44;9.50;99.90
37788;DHT22;23627;53.302;-6.362;2023-12-07T06:54:10;9.60;99.90
37788;DHT22;23627;53.302;-6.362;2023-12-07T06:56:36;9.60;99.90
37788;DHT22;23627;53.302;-6.362;2023-12-07T06:59:01;9.60;99.90
37788;DHT22;23627;53.302;-6.362;2023-12-07T07:01:27;9.70;99.90
37788;DHT22;23627;53.302;-6.362;2023-12-07T07:03:53;9.70;99.90
37788;DHT22;23627;53.302;-6.362;2023-12-07T07:06:18;9.70;99.90
37788;DHT22;23627;53.302;-6.362;2023-12-07T07:08:44;9.80;99.90
37788;DHT22;23627;53.302;-6.362;2023-12-07T07:11:13;9.80;99.90
37788;DHT22;23627;53.302;-6.362;2023-12-07T07:13:42;9.80;99.90
37788;DHT22;23627;53.302;-6.362;2023-12-07T07:16:08;9.80;99.90
37788;DHT22;23627;53.302;-6.362;2023-12-07T07:18:34;9.80;99.90
37788;DHT22;23627;53.302;-6.362;2023-12-07T07:21:00;9.90;99.90
37788;DHT22;23627;53.302;-6.362;2023-12-07T07:23:26;9.90;99.90
37788;DHT22;23627;53.302;-6.362;2023-12-07T07:25:52;9.90;99.90
37788;DHT22;23627;53.302;-6.362;2023-12-07T07:28:21;9.90;99.90
37788;DHT22;23627;53.302;-6.362;2023-12-07T07:30:47;9.90;99.90
37788;DHT22;23627;53.302;-6.362;2023-12-07T07:33:13;10.00;99.90
37788;DHT22;23627;53.302;-6.362;2023-12-07T07:35:39;10.00;99.90
37788;DHT22;23627;53.302;-6.362;2023-12-07T07:38:04;10.00;99.90
37788;DHT22;23627;53.302;-6.362;2023-12-07T07:40:30;10.00;99.90
37788;DHT22;23627;53.302;-6.362;2023-12-07T07:42:56;10.00;99.90
37788;DHT22;23627;53.302;-6.362;2023-12-07T07:45:21;10.00;99.90
37788;DHT22;23627;53.302;-6.362;2023-12-07T07:47:47;10.00;99.90
37788;DHT22;23627;53.302;-6.362;2023-12-07T07:50:14;10.00;99.90
37788;DHT22;23627;53.302;-6.362;2023-12-07T07:52:39;10.10;99.90
37788;DHT22;23627;53.302;-6.362;2023-12-07T07:55:06;10.10;99.90
37788;DHT22;23627;53.302;-6.362;2023-12-07T07:57:32;10.00;99.90
37788;DHT22;23627;53.302;-6.362;2023-12-07T07:59:58;10.10;99.90
37788;DHT22;23627;53.302;-6.362;2023-12-07T08:02:24;10.10;99.90
37788;DHT22;23627;53.302;-6.362;2023-12-07T08:04:50;10.10;99.90
37788;DHT22;23627;53.302;-6.362;2023-12-07T08:07:17;10.10;99.90
37788;DHT22;23627;53.302;-6.362;2023-12-07T08:09:43;10.20;99.90
37788;DHT22;23627;53.302;-6.362;2023-12-07T08:12:09;10.10;99.90
37788;DHT22;23627;53.302;-6.362;2023-12-07T08:14:38;10.10;99.90
37788;DHT22;23627;53.302;-6.362;2023-12-07T08:17:04;10.10;99.90
37788;DHT22;23627;53.302;-6.362;2023-12-07T08:19:29;10.20;99.90
37788;DHT22;23627;53.302;-6.362;2023-12-07T08:21:55;10.20;99.90
37788;DHT22;23627;53.302;-6.362;2023-12-07T08:24:21;10.20;99.90
37788;DHT22;23627;53.302;-6.362;2023-12-07T08:26:47;10.20;99.90
37788;DHT22;23627;53.302;-6.362;2023-12-07T08:29:12;10.20;99.90
37788;DHT22;23627;53.302;-6.362;2023-12-07T08:31:40;10.20;99.90
37788;DHT22;23627;53.302;-6.362;2023-12-07T08:34:06;10.20;99.90
37788;DHT22;23627;53.302;-6.362;2023-12-07T08:36:31;10.20;99.90
37788;DHT22;23627;53.302;-6.362;2023-12-07T08:38:57;10.20;99.90
37788;DHT22;23627;53.302;-6.362;2023-12-07T08:41:23;10.20;99.90
37788;DHT22;23627;53.302;-6.362;2023-12-07T08:43:49;10.20;99.90
37788;DHT22;23627;53.302;-6.362;2023-12-07T08:46:14;10.20;99.90
37788;DHT22;23627;53.302;-6.362;2023-12-07T08:48:40;10.20;99.90
37788;DHT22;23627;53.302;-6.362;2023-12-07T08:51:06;10.20;99.90
37788;DHT22;23627;53.302;-6.362;2023-12-07T08:53:37;10.30;99.90
37788;DHT22;23627;53.302;-6.362;2023-12-07T08:56:04;10.20;99.90
37788;DHT22;23627;53.302;-6.362;2023-12-07T08:58:29;10.30;99.90
37788;DHT22;23627;53.302;-6.362;2023-12-07T09:00:55;10.30;99.90
37788;DHT22;23627;53.302;-6.362;2023-12-07T09:03:21;10.30;99.90
37788;DHT22;23627;53.302;-6.362;2023-12-07T09:05:51;10.30;99.90
37788;DHT22;23627;53.302;-6.362;2023-12-07T09:08:16;10.30;99.90
37788;DHT22;23627;53.302;-6.362;2023-12-07T09:10:42;10.30;99.90
37788;DHT22;23627;53.302;-6.362;2023-12-07T09:13:11;10.30;99.90
37788;DHT22;23627;53.302;-6.362;2023-12-07T09:15:37;10.30;99.90
37788;DHT22;23627;53.302;-6.362;2023-12-07T09:18:03;10.30;99.90
37788;DHT22;23627;53.302;-6.362;2023-12-07T09:20:29;10.40;99.90
37788;DHT22;23627;53.302;-6.362;2023-12-07T09:22:56;10.40;99.90
37788;DHT22;23627;53.302;-6.362;2023-12-07T09:25:23;10.40;99.90
37788;DHT22;23627;53.302;-6.362;2023-12-07T09:27:48;10.40;99.90
37788;DHT22;23627;53.302;-6.362;2023-12-07T09:30:14;10.40;99.90
37788;DHT22;23627;53.302;-6.362;2023-12-07T09:32:40;10.40;99.90
37788;DHT22;23627;53.302;-6.362;2023-12-07T09:35:08;10.40;99.90
37788;DHT22;23627;53.302;-6.362;2023-12-07T09:37:47;10.40;99.90
37788;DHT22;23627;53.302;-6.362;2023-12-07T09:40:18;10.50;99.90
37788;DHT22;23627;53.302;-6.362;2023-12-07T09:42:45;10.50;99.90
37788;DHT22;23627;53.302;-6.362;2023-12-07T09:45:11;10.50;99.90
37788;DHT22;23627;53.302;-6.362;2023-12-07T09:47:39;10.50;99.90
37788;DHT22;23627;53.302;-6.362;2023-12-07T09:50:06;10.50;99.90
37788;DHT22;23627;53.302;-6.362;2023-12-07T09:52:33;10.50;99.90
37788;DHT22;23627;53.302;-6.362;2023-12-07T09:55:00;10.50;99.90
37788;DHT22;23627;53.302;-6.362;2023-12-07T09:57:27;10.60;99.90
37788;DHT22;23627;53.302;-6.362;2023-12-07T09:59:53;10.50;99.90
37788;DHT22;23627;53.302;-6.362;2023-12-07T10:02:18;10.60;99.90
37788;DHT22;23627;53.302;-6.362;2023-12-07T10:04:44;10.60;99.90
37788;DHT22;23627;53.302;-6.362;2023-12-07T10:07:10;10.60;99.90
37788;DHT22;23627;53.302;-6.362;2023-12-07T10:09:39;10.60;99.90
37788;DHT22;23627;53.302;-6.362;2023-12-07T10:12:08;10.60;99.90
37788;DHT22;23627;53.302;-6.362;2023-12-07T10:14:34;10.60;99.90
37788;DHT22;23627;53.302;-6.362;2023-12-07T10:16:59;10.60;99.90
37788;DHT22;23627;53.302;-6.362;2023-12-07T10:19:26;10.60;99.90
37788;DHT22;23627;53.302;-6.362;2023-12-07T10:21:53;10.60;99.90
37788;DHT22;23627;53.302;-6.362;2023-12-07T10:24:23;10.70;99.90
37788;DHT22;23627;53.302;-6.362;2023-12-07T10:26:50;10.70;99.90
37788;DHT22;23627;53.302;-6.362;2023-12-07T10:29:19;10.70;99.90
37788;DHT22;23627;53.302;-6.362;2023-12-07T10:31:46;10.80;99.90
37788;DHT22;23627;53.302;-6.362;2023-12-07T10:34:18;10.70;99.90
37788;DHT22;23627;53.302;-6.362;2023-12-07T10:36:46;10.80;99.90
37788;DHT22;23627;53.302;-6.362;2023-12-07T10:39:13;10.80;99.90
37788;DHT22;23627;53.302;-6.362;2023-12-07T10:41:41;10.90;99.90
37788;DHT22;23627;53.302;-6.362;2023-12-07T10:44:09;10.90;99.90
37788;DHT22;23627;53.302;-6.362;2023-12-07T10:46:39;10.90;99.90
37788;DHT22;23627;53.302;-6.362;2023-12-07T10:49:08;10.90;99.90
37788;DHT22;23627;53.302;-6.362;2023-12-07T10:54:16;10.90;99.90
37788;DHT22;23627;53.302;-6.362;2023-12-07T10:56:46;11.00;99.90
37788;DHT22;23627;53.302;-6.362;2023-12-07T10:59:12;11.00;99.90
37788;DHT22;23627;53.302;-6.362;2023-12-07T11:01:39;11.00;99.90
37788;DHT22;23627;53.302;-6.362;2023-12-07T11:04:06;11.00;99.90
37788;DHT22;23627;53.302;-6.362;2023-12-07T11:06:35;11.00;99.90
37788;DHT22;23627;53.302;-6.362;2023-12-07T11:09:04;11.00;99.90
37788;DHT22;23627;53.302;-6.362;2023-12-07T11:12:01;11.00;99.90
37788;DHT22;23627;53.302;-6.362;2023-12-07T11:14:25;11.00;99.90
37788;DHT22;23627;53.302;-6.362;2023-12-07T11:16:52;11.10;99.90
37788;DHT22;23627;53.302;-6.362;2023-12-07T11:22:10;11.10;99.90
37788;DHT22;23627;53.302;-6.362;2023-12-07T11:24:36;11.10;99.90
37788;DHT22;23627;53.302;-6.362;2023-12-07T11:27:02;11.10;99.90
37788;DHT22;23627;53.302;-6.362;2023-12-07T11:29:29;11.10;99.90
37788;DHT22;23627;53.302;-6.362;2023-12-07T11:32:05;11.10;99.90
37788;DHT22;23627;53.302;-6.362;2023-12-07T11:34:36;11.10;99.90
37788;DHT22;23627;53.302;-6.362;2023-12-07T11:37:02;11.10;99.90
37788;DHT22;23627;53.302;-6.362;2023-12-07T11:39:29;11.10;99.90
37788;DHT22;23627;53.302;-6.362;2023-12-07T11:41:55;11.10;99.90
37788;DHT22;23627;53.302;-6.362;2023-12-07T11:44:34;11.20;99.90
37788;DHT22;23627;53.302;-6.362;2023-12-07T11:47:03;11.20;99.90
37788;DHT22;23627;53.302;-6.362;2023-12-07T11:49:29;11.20;99.90
37788;DHT22;23627;53.302;-6.362;2023-12-07T11:51:56;11.20;99.90
37788;DHT22;23627;53.302;-6.362;2023-12-07T11:54:26;11.20;99.90
37788;DHT22;23627;53.302;-6.362;2023-12-07T11:56:55;11.20;99.90
37788;DHT22;23627;53.302;-6.362;2023-12-07T11:59:22;11.20;99.90
37788;DHT22;23627;53.302;-6.362;2023-12-07T12:01:48;11.20;99.90
37788;DHT22;23627;53.302;-6.362;2023-12-07T12:04:18;11.20;99.90
37788;DHT22;23627;53.302;-6.362;2023-12-07T12:06:46;11.20;99.90
37788;DHT22;23627;53.302;-6.362;2023-12-07T12:09:15;11.20;99.90
37788;DHT22;23627;53.302;-6.362;2023-12-07T12:11:47;11.20;99.90
37788;DHT22;23627;53.302;-6.362;2023-12-07T12:14:17;11.20;99.90
37788;DHT22;23627;53.302;-6.362;2023-12-07T12:16:44;11.20;99.90
37788;DHT22;23627;53.302;-6.362;2023-12-07T12:19:10;11.20;99.90
37788;DHT22;23627;53.302;-6.362;2023-12-07T12:21:39;11.30;99.90
37788;DHT22;23627;53.302;-6.362;2023-12-07T12:24:06;11.20;99.90
37788;DHT22;23627;53.302;-6.362;2023-12-07T12:26:36;11.20;99.90
37788;DHT22;23627;53.302;-6.362;2023-12-07T12:29:05;11.30;99.90
37788;DHT22;23627;53.302;-6.362;2023-12-07T12:31:32;11.20;99.90
37788;DHT22;23627;53.302;-6.362;2023-12-07T12:34:01;11.20;99.90
37788;DHT22;23627;53.302;-6.362;2023-12-07T12:36:27;11.20;99.90
37788;DHT22;23627;53.302;-6.362;2023-12-07T12:38:54;11.20;99.90
37788;DHT22;23627;53.302;-6.362;2023-12-07T12:41:21;11.20;99.90
37788;DHT22;23627;53.302;-6.362;2023-12-07T12:43:47;11.20;99.90
37788;DHT22;23627;53.302;-6.362;2023-12-07T12:46:14;11.20;99.90
37788;DHT22;23627;53.302;-6.362;2023-12-07T12:48:59;11.20;99.90
37788;DHT22;23627;53.302;-6.362;2023-12-07T12:51:28;11.20;99.90
37788;DHT22;23627;53.302;-6.362;2023-12-07T12:53:59;11.30;99.90
37788;DHT22;23627;53.302;-6.362;2023-12-07T12:56:26;11.30;99.90
37788;DHT22;23627;53.302;-6.362;2023-12-07T12:58:54;11.30;99.90
37788;DHT22;23627;53.302;-6.362;2023-12-07T13:01:23;11.40;99.90
37788;DHT22;23627;53.302;-6.362;2023-12-07T13:03:49;11.40;99.90
37788;DHT22;23627;53.302;-6.362;2023-12-07T13:06:16;11.40;99.90
37788;DHT22;23627;53.302;-6.362;2023-12-07T13:08:46;11.40;99.90
37788;DHT22;23627;53.302;-6.362;2023-12-07T13:11:20;11.50;99.90
37788;DHT22;23627;53.302;-6.362;2023-12-07T13:13:46;11.50;99.90
37788;DHT22;23627;53.302;-6.362;2023-12-07T13:16:18;11.50;99.90
37788;DHT22;23627;53.302;-6.362;2023-12-07T13:18:45;11.50;99.90
37788;DHT22;23627;53.302;-6.362;2023-12-07T13:21:11;11.50;99.90
37788;DHT22;23627;53.302;-6.362;2023-12-07T13:23:37;11.50;99.90
37788;DHT22;23627;53.302;-6.362;2023-12-07T13:26:03;11.40;99.90
37788;DHT22;23627;53.302;-6.362;2023-12-07T13:28:30;11.40;99.90
37788;DHT22;23627;53.302;-6.362;2023-12-07T13:30:55;11.40;99.90
37788;DHT22;23627;53.302;-6.362;2023-12-07T13:33:21;11.40;99.90
37788;DHT22;23627;53.302;-6.362;2023-12-07T13:35:48;11.40;99.90
37788;DHT22;23627;53.302;-6.362;2023-12-07T13:38:14;11.40;99.90
37788;DHT22;23627;53.302;-6.362;2023-12-07T13:40:40;11.40;99.90
37788;DHT22;23627;53.302;-6.362;2023-12-07T13:43:06;11.40;99.90
37788;DHT22;23627;53.302;-6.362;2023-12-07T13:45:32;11.40;99.90
37788;DHT22;23627;53.302;-6.362;2023-12-07T13:47:58;11.40;99.90
37788;DHT22;23627;53.302;-6.362;2023-12-07T13:50:24;11.40;99.90
37788;DHT22;23627;53.302;-6.362;2023-12-07T13:52:50;11.30;99.90
37788;DHT22;23627;53.302;-6.362;2023-12-07T13:55:16;11.30;99.90
37788;DHT22;23627;53.302;-6.362;2023-12-07T13:57:41;11.30;99.90
37788;DHT22;23627;53.302;-6.362;2023-12-07T14:00:07;11.30;99.90
37788;DHT22;23627;53.302;-6.362;2023-12-07T14:02:38;11.30;99.90
37788;DHT22;23627;53.302;-6.362;2023-12-07T14:05:04;11.30;99.90
37788;DHT22;23627;53.302;-6.362;2023-12-07T14:07:30;11.20;99.90
37788;DHT22;23627;53.302;-6.362;2023-12-07T14:09:56;11.20;99.90
37788;DHT22;23627;53.302;-6.362;2023-12-07T14:12:22;11.20;99.90
37788;DHT22;23627;53.302;-6.362;2023-12-07T14:14:48;11.20;99.90
37788;DHT22;23627;53.302;-6.362;2023-12-07T14:17:15;11.20;99.90
37788;DHT22;23627;53.302;-6.362;2023-12-07T14:19:41;11.20;99.90
37788;DHT22;23627;53.302;-6.362;2023-12-07T14:22:07;11.20;99.90
37788;DHT22;23627;53.302;-6.362;2023-12-07T14:24:37;11.20;99.90
37788;DHT22;23627;53.302;-6.362;2023-12-07T14:27:03;11.20;99.90
37788;DHT22;23627;53.302;-6.362;2023-12-07T14:29:29;11.20;99.90
37788;DHT22;23627;53.302;-6.362;2023-12-07T14:31:57;11.20;99.90
37788;DHT22;23627;53.302;-6.362;2023-12-07T14:34:24;11.20;99.90
37788;DHT22;23627;53.302;-6.362;2023-12-07T14:36:52;11.20;99.90
37788;DHT22;23627;53.302;-6.362;2023-12-07T14:39:18;11.20;99.90
37788;DHT22;23627;53.302;-6.362;2023-12-07T14:41:45;11.20;99.90
37788;DHT22;23627;53.302;-6.362;2023-12-07T14:44:15;11.20;99.90
37788;DHT22;23627;53.302;-6.362;2023-12-07T14:46:42;11.20;99.90
37788;DHT22;23627;53.302;-6.362;2023-12-07T14:49:08;11.20;99.90
37788;DHT22;23627;53.302;-6.362;2023-12-07T14:51:34;11.20;99.90
37788;DHT22;23627;53.302;-6.362;2023-12-07T14:54:00;11.20;99.90
37788;DHT22;23627;53.302;-6.362;2023-12-07T14:56:25;11.20;99.90
37788;DHT22;23627;53.302;-6.362;2023-12-07T14:58:51;11.20;99.90
37788;DHT22;23627;53.302;-6.362;2023-12-07T15:01:17;11.20;99.90
37788;DHT22;23627;53.302;-6.362;2023-12-07T15:03:42;11.20;99.90
37788;DHT22;23627;53.302;-6.362;2023-12-07T15:06:08;11.20;99.90
37788;DHT22;23627;53.302;-6.362;2023-12-07T15:08:34;11.20;99.90
37788;DHT22;23627;53.302;-6.362;2023-12-07T15:11:00;11.30;99.90
37788;DHT22;23627;53.302;-6.362;2023-12-07T15:13:25;11.30;99.90
37788;DHT22;23627;53.302;-6.362;2023-12-07T15:15:52;11.30;99.90
37788;DHT22;23627;53.302;-6.362;2023-12-07T15:18:17;11.20;99.90
37788;DHT22;23627;53.302;-6.362;2023-12-07T15:20:43;11.20;99.90
37788;DHT22;23627;53.302;-6.362;2023-12-07T15:23:09;11.20;99.90
37788;DHT22;23627;53.302;-6.362;2023-12-07T15:25:34;11.20;99.90
37788;DHT22;23627;53.302;-6.362;2023-12-07T15:28:01;11.10;99.90